createdAt,value
2022-10-28T00:00:26.308Z,8.27
2022-10-28T00:03:28.090Z,7.22
2022-10-28T00:06:35.498Z,7.32
2022-10-28T00:09:37.569Z,5.95
2022-10-28T00:12:39.357Z,8.02
2022-10-28T00:15:41.219Z,5.95
2022-10-28T00:18:43.202Z,7.00
2022-10-28T00:21:46.039Z,6.18
2022-10-28T00:24:47.712Z,5.43
2022-10-28T00:27:49.485Z,6.50
2022-10-28T00:30:51.343Z,7.65
2022-10-28T00:33:54.050Z,7.20
2022-10-28T00:36:55.837Z,7.10
2022-10-28T00:39:57.607Z,7.65
2022-10-28T00:42:59.374Z,7.15
2022-10-28T00:46:02.148Z,5.85
2022-10-28T00:49:17.328Z,7.05
2022-10-28T00:52:22.677Z,7.70
2022-10-28T00:55:24.833Z,6.82
2022-10-28T00:58:26.897Z,6.95
2022-10-28T01:01:29.102Z,6.82
2022-10-28T01:04:31.305Z,6.50
2022-10-28T01:07:33.106Z,6.05
2022-10-28T01:11:05.986Z,7.10
2022-10-28T01:14:26.722Z,7.40
2022-10-28T01:17:41.266Z,6.10
2022-10-28T01:21:07.799Z,6.63
2022-10-28T01:24:36.530Z,6.75
2022-10-28T01:27:57.138Z,5.32
2022-10-28T01:31:04.834Z,5.43
2022-10-28T01:34:09.619Z,6.07
2022-10-28T01:37:24.694Z,5.15
2022-10-28T01:40:37.359Z,6.00
2022-10-28T01:43:39.350Z,6.57
2022-10-28T01:46:48.447Z,6.75
2022-10-28T01:50:01.892Z,6.43
2022-10-28T01:53:11.198Z,6.30
2022-10-28T01:56:16.578Z,6.22
2022-10-28T01:59:21.707Z,6.70
2022-10-28T02:02:23.858Z,6.90
2022-10-28T02:05:51.407Z,5.78
2022-10-28T02:08:57.228Z,5.25
2022-10-28T02:12:22.377Z,5.90
2022-10-28T02:15:42.627Z,5.75
2022-10-28T02:19:06.201Z,6.57
2022-10-28T02:22:25.409Z,4.65
2022-10-28T02:25:40.281Z,5.47
2022-10-28T02:28:43.504Z,5.43
2022-10-28T02:31:49.696Z,5.78
2022-10-28T02:34:54.824Z,4.40
2022-10-28T02:37:59.734Z,4.97
2022-10-28T02:41:06.873Z,5.05
2022-10-28T02:47:14.139Z,5.95
2022-10-28T02:50:19.002Z,4.70
2022-10-28T02:53:32.540Z,4.70
2022-10-28T02:56:41.140Z,6.03
2022-10-28T02:59:43.070Z,4.15
2022-10-28T03:02:44.881Z,5.03
2022-10-28T03:05:46.600Z,5.03
2022-10-28T03:08:48.374Z,5.32
2022-10-28T03:11:50.126Z,5.10
2022-10-28T03:14:51.908Z,4.15
2022-10-28T03:17:55.968Z,4.55
2022-10-28T03:20:59.087Z,4.38
2022-10-28T03:24:01.385Z,4.15
2022-10-28T03:27:03.149Z,3.70
2022-10-28T03:30:05.321Z,3.80
2022-10-28T03:33:07.209Z,4.07
2022-10-28T03:36:08.991Z,3.95
2022-10-28T03:39:10.870Z,3.75
2022-10-28T03:42:12.996Z,4.40
2022-10-28T03:45:14.819Z,3.53
2022-10-28T03:48:17.219Z,4.60
2022-10-28T03:51:19.089Z,3.83
2022-10-28T03:54:20.808Z,3.97
2022-10-28T03:57:32.121Z,3.35
2022-10-28T04:00:33.945Z,4.13
2022-10-28T04:03:35.856Z,3.58
2022-10-28T04:06:37.706Z,4.05
2022-10-28T04:09:39.620Z,3.60
2022-10-28T04:12:41.534Z,3.95
2022-10-28T04:15:43.652Z,3.25
2022-10-28T04:18:45.607Z,3.22
2022-10-28T04:21:47.375Z,2.47
2022-10-28T04:24:49.393Z,3.60
2022-10-28T04:27:51.505Z,3.42
2022-10-28T04:30:53.610Z,3.28
2022-10-28T04:33:55.401Z,3.50
2022-10-28T04:36:57.254Z,3.90
2022-10-28T04:39:59.367Z,4.10
2022-10-28T04:43:01.352Z,3.80
2022-10-28T04:46:06.238Z,3.92
2022-10-28T04:49:09.063Z,3.80
2022-10-28T04:52:14.813Z,3.75
2022-10-28T04:55:17.986Z,3.95
2022-10-28T04:58:19.933Z,3.25
2022-10-28T05:01:22.031Z,3.88
2022-10-28T05:04:23.897Z,3.38
2022-10-28T05:07:25.849Z,4.30
2022-10-28T05:10:27.826Z,3.42
2022-10-28T05:17:00.182Z,4.30
2022-10-28T05:20:02.012Z,4.13
2022-10-28T05:23:25.796Z,3.58
2022-10-28T05:26:30.310Z,3.70
2022-10-28T05:29:33.387Z,3.72
2022-10-28T05:32:35.375Z,3.90
2022-10-28T05:35:39.354Z,3.67
2022-10-28T05:38:42.670Z,3.67
2022-10-28T05:41:44.709Z,3.95
2022-10-28T05:44:46.571Z,4.15
2022-10-28T05:47:49.046Z,4.57
2022-10-28T05:50:50.785Z,3.88
2022-10-28T05:53:53.288Z,4.18
2022-10-28T05:56:55.343Z,4.05
2022-10-28T05:59:57.257Z,4.18
2022-10-28T06:03:09.530Z,4.00
2022-10-28T06:06:11.266Z,3.92
2022-10-28T06:09:13.205Z,3.90
2022-10-28T06:12:13.465Z,3.20
2022-10-28T06:15:15.555Z,4.35
2022-10-28T06:18:18.982Z,4.80
2022-10-28T06:21:20.999Z,4.15
2022-10-28T06:24:23.281Z,5.97
2022-10-28T06:27:25.578Z,4.78
2022-10-28T06:30:27.841Z,3.78
2022-10-28T06:33:30.451Z,4.50
2022-10-28T06:36:32.701Z,4.97
2022-10-28T06:39:36.911Z,5.25
2022-10-28T06:42:39.205Z,4.22
2022-10-28T06:45:41.511Z,4.32
2022-10-28T06:48:44.979Z,4.20
2022-10-28T06:51:47.116Z,4.97
2022-10-28T06:54:49.185Z,4.35
2022-10-28T06:57:51.612Z,4.22
2022-10-28T07:00:54.322Z,4.43
2022-10-28T07:03:56.557Z,4.25
2022-10-28T07:06:59.209Z,4.18
2022-10-28T07:10:01.420Z,3.88
2022-10-28T07:13:03.553Z,4.47
2022-10-28T07:16:06.017Z,4.93
2022-10-28T07:19:10.711Z,5.22
2022-10-28T07:22:13.127Z,4.20
2022-10-28T07:25:15.256Z,4.95
2022-10-28T07:28:17.539Z,3.88
2022-10-28T07:31:19.603Z,4.18
2022-10-28T07:34:26.746Z,4.32
2022-10-28T07:37:29.351Z,3.22
2022-10-28T07:40:31.314Z,2.95
2022-10-28T07:43:39.518Z,4.18
2022-10-28T07:46:42.073Z,4.30
2022-10-28T07:49:44.182Z,4.70
2022-10-28T07:52:46.135Z,4.97
2022-10-28T07:55:59.156Z,4.53
2022-10-28T07:59:01.264Z,5.18
2022-10-28T08:02:03.807Z,4.35
2022-10-28T08:05:06.433Z,4.95
2022-10-28T08:08:08.565Z,5.30
2022-10-28T08:11:16.218Z,5.82
2022-10-28T08:14:18.202Z,4.65
2022-10-28T08:17:20.397Z,4.25
2022-10-28T08:20:22.657Z,5.22
2022-10-28T08:23:30.439Z,4.50
2022-10-28T08:26:32.443Z,4.65
2022-10-28T08:29:34.853Z,4.45
2022-10-28T08:32:36.717Z,4.75
2022-10-28T08:35:38.666Z,4.07
2022-10-28T08:38:47.989Z,5.18
2022-10-28T08:42:00.901Z,3.55
2022-10-28T08:45:21.683Z,5.70
2022-10-28T08:48:35.539Z,4.13
2022-10-28T08:51:40.650Z,4.28
2022-10-28T08:54:42.538Z,4.50
2022-10-28T08:57:46.323Z,5.03
2022-10-28T09:00:53.493Z,3.75
2022-10-28T09:03:55.575Z,5.07
2022-10-28T09:06:57.626Z,4.28
2022-10-28T09:09:59.782Z,3.30
2022-10-28T09:13:07.463Z,4.50
2022-10-28T09:16:31.288Z,4.47
2022-10-28T09:19:47.834Z,4.10
2022-10-28T09:23:27.012Z,4.85
2022-10-28T09:26:35.773Z,4.28
2022-10-28T09:29:44.175Z,4.85
2022-10-28T09:33:10.908Z,3.85
2022-10-28T09:36:21.904Z,4.53
2022-10-28T09:39:28.153Z,4.05
2022-10-28T09:45:46.560Z,4.75
2022-10-28T09:48:52.757Z,4.60
2022-10-28T09:52:05.781Z,5.33
2022-10-28T09:55:16.624Z,4.57
2022-10-28T09:58:19.366Z,4.28
2022-10-28T10:01:21.616Z,5.20
2022-10-28T10:04:25.653Z,4.32
2022-10-28T10:07:38.048Z,5.13
2022-10-28T10:10:56.727Z,4.75
2022-10-28T10:14:01.091Z,4.68
2022-10-28T10:17:12.439Z,4.63
2022-10-28T10:20:23.294Z,4.93
2022-10-28T10:23:37.539Z,4.65
2022-10-28T10:26:39.637Z,4.53
2022-10-28T10:29:53.057Z,4.60
2022-10-28T10:32:55.551Z,4.63
2022-10-28T10:36:09.855Z,5.00
2022-10-28T10:39:35.155Z,5.75
2022-10-28T10:42:42.715Z,5.82
2022-10-28T10:46:03.284Z,5.20
2022-10-28T10:49:16.834Z,5.32
2022-10-28T10:52:21.671Z,4.75
2022-10-28T10:55:29.789Z,4.00
2022-10-28T10:58:35.588Z,4.90
2022-10-28T11:01:40.303Z,5.85
2022-10-28T11:04:50.860Z,5.43
2022-10-28T11:07:53.594Z,7.05
2022-10-28T11:11:20.374Z,6.13
2022-10-28T11:14:30.639Z,5.57
2022-10-28T11:17:34.858Z,4.30
2022-10-28T11:21:01.479Z,5.43
2022-10-28T11:24:09.460Z,6.93
2022-10-28T11:27:42.612Z,4.07
2022-10-28T11:30:44.552Z,4.22
2022-10-28T11:34:10.267Z,4.00
2022-10-28T11:37:36.721Z,4.75
2022-10-28T11:41:09.768Z,4.60
2022-10-28T11:44:41.524Z,4.40
2022-10-28T11:47:46.652Z,4.10
2022-10-28T11:50:55.859Z,3.40
2022-10-28T11:54:32.196Z,7.10
2022-10-28T11:57:56.365Z,3.78
2022-10-28T12:01:17.145Z,3.67
2022-10-28T12:04:50.150Z,3.42
2022-10-28T12:08:13.264Z,5.15
2022-10-28T12:11:47.577Z,3.58
2022-10-28T12:15:14.499Z,3.13
2022-10-28T12:18:22.510Z,3.80
2022-10-28T12:21:37.808Z,3.40
2022-10-28T12:24:41.620Z,3.90
2022-10-28T12:27:45.717Z,4.72
2022-10-28T12:30:49.296Z,3.42
2022-10-28T12:33:57.344Z,3.65
2022-10-28T12:37:05.450Z,2.95
2022-10-28T12:40:53.577Z,4.30
2022-10-28T12:44:12.659Z,3.60
2022-10-28T12:47:21.390Z,5.45
2022-10-28T12:50:56.012Z,4.20
2022-10-28T12:54:06.920Z,5.45
2022-10-28T12:57:14.387Z,4.15
2022-10-28T13:00:28.687Z,3.75
2022-10-28T13:03:30.676Z,5.03
2022-10-28T13:06:57.535Z,3.85
2022-10-28T13:10:13.082Z,3.38
2022-10-28T13:13:29.784Z,3.95
2022-10-28T13:16:53.835Z,3.47
2022-10-28T13:20:12.610Z,4.88
2022-10-28T13:23:20.546Z,4.15
2022-10-28T13:26:31.213Z,3.72
2022-10-28T13:29:35.454Z,4.68
2022-10-28T13:32:39.780Z,4.65
2022-10-28T13:35:42.250Z,4.28
2022-10-28T13:38:53.599Z,3.78
2022-10-28T13:42:23.485Z,4.18
2022-10-28T13:45:48.749Z,4.53
2022-10-28T13:48:50.824Z,4.50
2022-10-28T13:52:12.152Z,6.45
2022-10-28T13:55:14.063Z,5.28
2022-10-28T13:58:23.974Z,4.05
2022-10-28T14:02:01.312Z,4.60
2022-10-28T14:05:12.123Z,4.80
2022-10-28T14:08:32.880Z,5.28
2022-10-28T14:11:35.011Z,4.90
2022-10-28T14:14:37.474Z,4.43
2022-10-28T14:17:41.211Z,4.68
2022-10-28T14:20:49.121Z,14.40
2022-10-28T14:24:07.682Z,7.22
2022-10-28T14:27:10.114Z,5.88
2022-10-28T14:30:23.016Z,3.63
2022-10-28T14:33:24.999Z,4.88
2022-10-28T14:36:50.518Z,4.47
2022-10-28T14:40:42.954Z,4.32
2022-10-28T14:43:57.538Z,3.38
2022-10-28T14:47:37.430Z,3.78
2022-10-28T14:50:48.158Z,3.92
2022-10-28T14:53:53.173Z,3.40
2022-10-28T14:56:57.567Z,4.07
2022-10-28T15:00:05.191Z,4.82
2022-10-28T15:03:10.506Z,4.13
2022-10-28T15:06:31.014Z,5.80
2022-10-28T15:09:35.035Z,6.22
2022-10-28T15:12:36.965Z,4.55
2022-10-28T15:15:39.477Z,5.78
2022-10-28T15:18:46.985Z,5.82
2022-10-28T15:22:17.528Z,5.22
2022-10-28T15:25:21.509Z,6.63
2022-10-28T15:28:23.751Z,4.57
2022-10-28T15:31:25.972Z,6.68
2022-10-28T15:34:29.556Z,9.25
2022-10-28T15:37:36.535Z,4.60
2022-10-28T15:43:41.463Z,4.95
2022-10-28T15:46:49.287Z,3.78
2022-10-28T15:50:17.437Z,5.22
2022-10-28T15:53:32.278Z,6.55
2022-10-28T15:56:54.645Z,7.05
2022-10-28T16:00:25.854Z,5.47
2022-10-28T16:03:54.134Z,8.52
2022-10-28T16:06:57.500Z,10.25
2022-10-28T16:09:59.475Z,6.22
2022-10-28T16:13:04.454Z,4.20
2022-10-28T16:16:13.390Z,3.67
2022-10-28T16:19:30.339Z,3.10
2022-10-28T16:22:35.040Z,4.30
2022-10-28T16:25:37.143Z,4.32
2022-10-28T16:28:41.415Z,4.93
2022-10-28T16:31:50.245Z,6.00
2022-10-28T16:34:55.266Z,4.43
2022-10-28T16:37:57.066Z,3.95
2022-10-28T16:41:00.528Z,4.50
2022-10-28T16:44:02.872Z,6.72
2022-10-28T16:47:16.573Z,6.68
2022-10-28T16:50:18.642Z,7.30
2022-10-28T16:53:21.115Z,13.43
2022-10-28T16:56:23.015Z,8.07
2022-10-28T16:59:24.753Z,4.95
2022-10-28T17:02:33.902Z,6.05
2022-10-28T17:05:35.903Z,6.82
2022-10-28T17:09:01.849Z,6.32
2022-10-28T17:12:02.252Z,7.43
2022-10-28T17:15:04.474Z,5.65
2022-10-28T17:18:06.662Z,6.10
2022-10-28T17:21:08.514Z,5.28
2022-10-28T17:24:10.712Z,5.97
2022-10-28T17:27:15.756Z,6.20
2022-10-28T17:30:18.044Z,5.38
2022-10-28T17:33:20.157Z,4.55
2022-10-28T17:36:23.371Z,4.03
2022-10-28T17:39:26.583Z,5.03
2022-10-28T17:42:29.035Z,4.60
2022-10-28T17:45:30.976Z,4.80
2022-10-28T17:48:33.464Z,4.97
2022-10-28T17:51:37.042Z,4.45
2022-10-28T17:54:39.516Z,5.05
2022-10-28T17:57:41.558Z,5.22
2022-10-28T18:00:44.325Z,6.88
2022-10-28T18:03:50.500Z,4.63
2022-10-28T18:06:57.298Z,3.63
2022-10-28T18:09:59.403Z,4.50
2022-10-28T18:13:02.116Z,7.55
2022-10-28T18:16:05.406Z,4.13
2022-10-28T18:19:08.784Z,5.85
2022-10-28T18:22:11.142Z,5.65
2022-10-28T18:25:13.811Z,5.35
2022-10-28T18:28:17.832Z,7.68
2022-10-28T18:31:20.761Z,4.60
2022-10-28T18:34:24.108Z,5.47
2022-10-28T18:37:28.572Z,4.80
2022-10-28T18:40:30.446Z,4.95
2022-10-28T18:43:32.465Z,4.85
2022-10-28T18:46:38.175Z,6.20
2022-10-28T18:49:40.320Z,6.22
2022-10-28T18:52:42.138Z,6.18
2022-10-28T18:55:43.943Z,5.80
2022-10-28T18:58:49.253Z,5.70
2022-10-28T19:01:51.354Z,6.07
2022-10-28T19:04:53.682Z,6.13
2022-10-28T19:07:56.170Z,4.53
2022-10-28T19:10:59.319Z,4.75
2022-10-28T19:14:05.597Z,3.63
2022-10-28T19:17:09.003Z,4.00
2022-10-28T19:20:11.398Z,5.32
2022-10-28T19:23:13.703Z,6.60
2022-10-28T19:26:16.200Z,4.50
2022-10-28T19:29:18.379Z,5.15
2022-10-28T19:32:20.331Z,9.40
2022-10-28T19:35:22.334Z,6.22
2022-10-28T19:38:24.210Z,5.82
2022-10-28T19:41:29.251Z,5.80
2022-10-28T19:44:31.492Z,7.00
2022-10-28T19:47:33.250Z,9.25
2022-10-28T19:50:35.564Z,12.23
2022-10-28T19:53:37.669Z,16.88
2022-10-28T19:56:39.826Z,6.40
2022-10-28T19:59:41.994Z,8.32
2022-10-28T20:02:44.445Z,5.65
2022-10-28T20:05:49.526Z,6.72
2022-10-28T20:08:51.575Z,5.90
2022-10-28T20:11:53.654Z,7.90
2022-10-28T20:14:55.755Z,9.63
2022-10-28T20:17:58.026Z,7.13
2022-10-28T20:21:05.378Z,5.30
2022-10-28T20:24:08.273Z,6.75
2022-10-28T20:27:10.307Z,7.07
2022-10-28T20:30:12.589Z,5.45
2022-10-28T20:33:21.440Z,8.10
2022-10-28T20:36:28.950Z,7.68
2022-10-28T20:39:31.615Z,6.90
2022-10-28T20:42:33.913Z,12.38
2022-10-28T20:45:35.981Z,15.75
2022-10-28T20:48:38.158Z,11.55
2022-10-28T20:51:41.066Z,6.82
2022-10-28T20:54:43.104Z,7.80
2022-10-28T20:57:45.050Z,7.57
2022-10-28T21:00:47.580Z,9.02
2022-10-28T21:03:49.908Z,8.90
2022-10-28T21:06:52.195Z,13.23
2022-10-28T21:09:54.212Z,8.73
2022-10-28T21:12:56.587Z,8.32
2022-10-28T21:15:58.854Z,6.47
2022-10-28T21:19:01.327Z,8.68
2022-10-28T21:22:03.186Z,6.57
2022-10-28T21:25:05.841Z,6.72
2022-10-28T21:28:07.892Z,6.30
2022-10-28T21:31:14.484Z,7.63
2022-10-28T21:34:16.727Z,8.32
2022-10-28T21:37:19.445Z,9.10
2022-10-28T21:40:21.392Z,8.02
2022-10-28T21:43:26.942Z,10.07
2022-10-28T21:46:28.840Z,8.80
2022-10-28T21:49:30.804Z,8.00
2022-10-28T21:52:32.592Z,7.95
2022-10-28T21:55:46.210Z,9.10
2022-10-28T21:58:50.861Z,7.22
2022-10-28T22:01:53.142Z,6.18
2022-10-28T22:04:55.210Z,7.28
2022-10-28T22:07:57.291Z,8.30
2022-10-28T22:11:19.123Z,8.48
2022-10-28T22:14:21.719Z,6.72
2022-10-28T22:17:23.903Z,7.50
2022-10-28T22:23:27.571Z,10.55
2022-10-28T22:26:30.599Z,8.70
2022-10-28T22:29:32.471Z,6.90
2022-10-28T22:32:34.382Z,6.53
2022-10-28T22:35:38.588Z,5.13
2022-10-28T22:38:42.937Z,4.37
2022-10-28T22:41:44.715Z,6.90
2022-10-28T22:44:46.590Z,5.57
2022-10-28T22:47:50.632Z,6.22
2022-10-28T22:50:52.861Z,4.47
2022-10-28T22:53:54.783Z,5.65
2022-10-28T22:56:57.130Z,6.88
2022-10-28T22:59:58.980Z,6.82
2022-10-28T23:03:00.959Z,6.40
2022-10-28T23:06:02.901Z,6.60
2022-10-28T23:09:04.952Z,6.63
2022-10-28T23:12:07.173Z,6.75
2022-10-28T23:15:09.100Z,6.80
2022-10-28T23:18:10.823Z,7.07
2022-10-28T23:21:23.687Z,6.32
2022-10-28T23:24:25.554Z,5.60
2022-10-28T23:27:27.269Z,6.35
2022-10-28T23:30:29.040Z,6.47
2022-10-28T23:33:34.099Z,8.07
2022-10-28T23:36:35.936Z,8.75
2022-10-28T23:39:37.791Z,7.50
2022-10-28T23:42:42.033Z,6.38
2022-10-28T23:45:43.843Z,8.77
2022-10-28T23:48:45.653Z,7.45
2022-10-28T23:51:47.673Z,6.50
2022-10-28T23:54:49.547Z,7.32
2022-10-28T23:57:51.644Z,6.80
